Time;durP1;ratioP1;P1;durP2;ratioP2;P2;SDS_P1;SDS_P2;PMS_P1;PMS_P2;Temp;Humidity;BMP_temperature;BMP_pressure;BME280_temperature;BME280_humidity;BME280_pressure;Samples;Min_cycle;Max_cycle;Signal;HPM_P1;HPM_P2
2021/04/18 00:02:18;;;;;;;80.60;23.97;;;4.20;99.90;;;;;;4421133;28;656767;-70
2021/04/18 00:05:07;;;;;;;85.65;25.13;;;4.20;99.90;;;;;;4450260;28;657181;-70
2021/04/18 00:08:01;;;;;;;75.10;24.57;;;4.20;99.90;;;;;;4424427;28;657620;-70
2021/04/18 00:10:49;;;;;;;75.77;25.07;;;4.20;99.90;;;;;;4405220;28;656846;-70
2021/04/18 00:13:36;;;;;;;73.10;23.27;;;4.20;99.90;;;;;;4447625;28;657645;-70
2021/04/18 00:16:25;;;;;;;102.03;25.37;;;4.20;99.90;;;;;;4423608;28;656829;-70
2021/04/18 00:19:13;;;;;;;62.57;22.73;;;4.20;99.90;;;;;;4440344;28;657623;-71
2021/04/18 00:22:00;;;;;;;60.53;23.27;;;4.20;99.90;;;;;;4440413;28;657509;-70
2021/04/18 00:24:47;;;;;;;53.77;22.70;;;4.20;99.90;;;;;;4432382;28;656822;-70
2021/04/18 00:27:35;;;;;;;62.23;23.20;;;4.30;99.90;;;;;;4451836;28;656765;-70
2021/04/18 00:30:23;;;;;;;68.27;22.17;;;4.30;99.90;;;;;;4437539;28;657085;-70
2021/04/18 00:33:11;;;;;;;67.77;23.87;;;4.30;99.90;;;;;;4447231;28;657789;-70
2021/04/18 00:35:58;;;;;;;84.93;25.03;;;4.30;99.90;;;;;;4428465;28;656479;-70
2021/04/18 00:38:46;;;;;;;65.97;25.40;;;4.30;99.90;;;;;;4446356;28;658033;-70
2021/04/18 00:41:34;;;;;;;124.07;30.17;;;4.30;99.90;;;;;;4431587;28;657072;-70
2021/04/18 00:44:21;;;;;;;82.60;27.90;;;4.30;99.90;;;;;;4444960;28;657687;-71
2021/04/18 00:47:08;;;;;;;136.13;26.03;;;4.20;99.90;;;;;;4430929;28;656600;-70
2021/04/18 00:49:57;;;;;;;120.80;23.67;;;4.20;99.90;;;;;;4443272;28;658318;-70
2021/04/18 00:52:44;;;;;;;135.73;26.27;;;4.20;99.90;;;;;;4430856;28;658283;-70
2021/04/18 00:55:32;;;;;;;107.20;23.63;;;4.20;99.90;;;;;;4453029;28;657905;-70
2021/04/18 00:58:20;;;;;;;108.93;23.30;;;4.20;99.90;;;;;;4426919;28;658103;-70
2021/04/18 01:01:07;;;;;;;86.73;24.83;;;4.20;99.90;;;;;;4449060;28;657297;-70
2021/04/18 01:03:54;;;;;;;127.17;25.37;;;4.20;99.90;;;;;;4428093;28;658309;-70
2021/04/18 01:06:43;;;;;;;132.33;23.13;;;4.20;99.90;;;;;;4449247;28;657356;-70
2021/04/18 01:09:30;;;;;;;97.23;23.73;;;4.20;99.90;;;;;;4419862;28;659269;-70
2021/04/18 01:12:18;;;;;;;92.53;25.40;;;4.20;99.90;;;;;;4430531;28;656916;-70
2021/04/18 01:15:06;;;;;;;84.00;23.53;;;4.20;99.90;;;;;;4454436;28;657729;-70
2021/04/18 01:17:53;;;;;;;63.87;23.67;;;4.20;99.90;;;;;;4431555;28;656636;-70
2021/04/18 01:20:41;;;;;;;100.20;26.33;;;4.30;99.90;;;;;;4449722;28;657695;-70
2021/04/18 01:23:29;;;;;;;99.90;27.27;;;4.30;99.90;;;;;;4429760;28;658173;-70
2021/04/18 01:26:16;;;;;;;89.37;27.63;;;4.30;99.90;;;;;;4450142;28;656565;-70
2021/04/18 01:29:04;;;;;;;86.87;25.80;;;4.30;99.90;;;;;;4426840;28;656844;-70
2021/04/18 01:31:51;;;;;;;94.90;24.83;;;4.30;99.90;;;;;;4454040;28;656215;-70
2021/04/18 01:34:41;;;;;;;95.07;25.17;;;4.30;99.90;;;;;;4431553;28;656872;-70
2021/04/18 01:37:32;;;;;;;95.90;25.27;;;4.40;99.90;;;;;;4424624;28;657455;-70
2021/04/18 01:40:21;;;;;;;110.10;25.07;;;4.40;99.90;;;;;;4430018;28;656654;-71
2021/04/18 01:43:08;;;;;;;112.50;26.23;;;4.40;99.90;;;;;;4423117;28;658318;-70
2021/04/18 01:45:55;;;;;;;139.97;27.67;;;4.40;99.90;;;;;;4451127;28;658335;-70
2021/04/18 01:48:43;;;;;;;92.63;25.97;;;4.30;99.90;;;;;;4425525;28;657759;-71
2021/04/18 01:51:30;;;;;;;107.37;25.07;;;4.30;99.90;;;;;;4448431;28;657819;-70
2021/04/18 01:54:18;;;;;;;142.63;26.55;;;4.30;99.90;;;;;;4434142;28;657824;-70
2021/04/18 01:57:07;;;;;;;194.90;25.43;;;4.30;99.90;;;;;;4452600;28;657337;-70
2021/04/18 01:59:54;;;;;;;81.97;23.87;;;4.20;99.90;;;;;;4428447;28;658354;-70
2021/04/18 02:02:42;;;;;;;59.30;22.10;;;4.20;99.90;;;;;;4446961;28;657042;-70
2021/04/18 02:05:30;;;;;;;78.97;24.13;;;4.20;99.90;;;;;;4423304;28;657674;-70
2021/04/18 02:08:17;;;;;;;84.57;25.23;;;4.30;99.90;;;;;;4435418;28;656953;-70
2021/04/18 02:11:05;;;;;;;63.30;23.13;;;4.30;99.90;;;;;;4449935;28;657631;-70
2021/04/18 02:13:53;;;;;;;80.70;25.60;;;4.30;99.90;;;;;;4441992;28;657036;-70
2021/04/18 02:16:41;;;;;;;73.33;22.43;;;4.30;99.90;;;;;;4452561;28;656843;-70
2021/04/18 02:19:28;;;;;;;69.17;21.83;;;4.20;99.90;;;;;;4425403;28;656604;-70
2021/04/18 02:22:15;;;;;;;61.33;17.97;;;4.30;99.90;;;;;;4442742;28;656669;-71
2021/04/18 02:25:03;;;;;;;68.63;18.70;;;4.20;99.90;;;;;;4422371;28;656707;-70
2021/04/18 02:27:51;;;;;;;73.13;19.47;;;4.20;99.90;;;;;;4441453;28;657411;-70
2021/04/18 02:30:40;;;;;;;75.20;18.10;;;4.20;99.90;;;;;;4430114;28;656552;-70
2021/04/18 02:33:27;;;;;;;169.03;18.30;;;4.20;99.90;;;;;;4442221;28;656582;-71
2021/04/18 02:36:15;;;;;;;126.60;18.53;;;4.20;99.90;;;;;;4451592;28;658129;-70
2021/04/18 02:39:06;;;;;;;49.50;16.87;;;4.20;99.90;;;;;;4445158;28;657837;-70
2021/04/18 02:41:53;;;;;;;84.80;18.23;;;4.10;99.90;;;;;;4410897;28;656541;-70
2021/04/18 02:44:41;;;;;;;149.80;21.03;;;4.10;99.90;;;;;;4448694;28;657483;-70
2021/04/18 02:47:29;;;;;;;109.40;19.07;;;4.10;99.90;;;;;;4427817;28;659330;-70
2021/04/18 02:50:16;;;;;;;65.23;19.77;;;4.10;99.90;;;;;;4447629;28;658177;-70
2021/04/18 02:53:04;;;;;;;56.63;20.33;;;4.10;99.90;;;;;;4428771;28;656308;-70
2021/04/18 02:55:51;;;;;;;49.60;16.27;;;4.10;99.90;;;;;;4438739;28;656908;-70
2021/04/18 02:58:38;;;;;;;111.13;19.03;;;4.20;99.90;;;;;;4429505;28;656579;-70
2021/04/18 03:01:26;;;;;;;56.70;16.93;;;4.20;99.90;;;;;;4445389;28;658498;-70
2021/04/18 03:04:14;;;;;;;80.60;17.30;;;4.20;99.90;;;;;;4429517;28;656393;-70
2021/04/18 03:07:02;;;;;;;134.60;14.85;;;4.20;99.90;;;;;;4447539;28;657284;-70
2021/04/18 03:09:49;;;;;;;143.90;15.70;;;4.20;99.90;;;;;;4427695;28;657438;-70
2021/04/18 03:12:36;;;;;;;109.60;16.13;;;4.20;99.90;;;;;;4446072;28;657874;-70
2021/04/18 03:15:24;;;;;;;66.07;15.53;;;4.10;99.90;;;;;;4424321;28;658020;-70
2021/04/18 03:18:11;;;;;;;91.53;18.80;;;4.10;99.90;;;;;;4451249;28;656673;-70
2021/04/18 03:20:59;;;;;;;58.85;16.98;;;4.10;99.90;;;;;;4429197;28;656611;-70
2021/04/18 03:23:47;;;;;;;75.27;17.13;;;4.10;99.90;;;;;;4438289;28;657018;-70
2021/04/18 03:26:35;;;;;;;68.70;19.47;;;4.10;99.90;;;;;;4451428;28;657025;-70
2021/04/18 03:29:22;;;;;;;51.70;16.97;;;4.10;99.90;;;;;;4442873;28;656464;-70
2021/04/18 03:32:10;;;;;;;58.93;17.60;;;4.10;99.90;;;;;;4447569;28;657467;-70
2021/04/18 03:34:57;;;;;;;74.60;16.00;;;4.10;99.90;;;;;;4442717;28;656644;-70
2021/04/18 03:37:46;;;;;;;95.50;19.20;;;4.10;99.90;;;;;;4452047;28;658097;-70
2021/04/18 03:40:33;;;;;;;96.27;19.43;;;4.10;99.90;;;;;;4429108;28;656416;-70
2021/04/18 03:43:20;;;;;;;82.00;18.00;;;4.00;99.90;;;;;;4435324;28;657262;-70
2021/04/18 03:46:08;;;;;;;73.93;18.40;;;4.00;99.90;;;;;;4416855;28;656283;-70
2021/04/18 03:48:55;;;;;;;129.70;18.87;;;4.00;99.90;;;;;;4443446;28;657696;-70
2021/04/18 03:51:43;;;;;;;59.22;16.50;;;3.90;99.90;;;;;;4426574;28;658488;-70
2021/04/18 03:54:32;;;;;;;128.63;18.57;;;4.00;99.90;;;;;;4447429;28;657123;-70
2021/04/18 03:57:19;;;;;;;81.77;19.10;;;4.00;99.90;;;;;;4426195;28;658267;-70
2021/04/18 04:00:08;;;;;;;76.90;15.87;;;3.90;99.90;;;;;;4439645;28;657034;-70
2021/04/18 04:02:55;;;;;;;75.00;16.53;;;3.90;99.90;;;;;;4427563;28;657516;-70
2021/04/18 04:05:43;;;;;;;66.50;15.77;;;3.90;99.90;;;;;;4427607;28;657129;-70
2021/04/18 04:08:30;;;;;;;55.33;15.10;;;4.00;99.90;;;;;;4446778;28;658246;-70
2021/04/18 04:11:18;;;;;;;32.67;14.27;;;3.90;99.90;;;;;;4440582;28;656787;-70
2021/04/18 04:14:06;;;;;;;63.50;15.43;;;4.00;99.90;;;;;;4440968;28;658105;-70
2021/04/18 04:16:53;;;;;;;40.83;15.00;;;4.00;99.90;;;;;;4428265;28;657078;-70
2021/04/18 04:19:40;;;;;;;40.00;14.40;;;4.00;99.90;;;;;;4447167;28;657376;-70
2021/04/18 04:22:28;;;;;;;34.63;14.07;;;4.00;99.90;;;;;;4421533;28;656898;-70
2021/04/18 04:25:15;;;;;;;33.23;15.00;;;4.10;99.90;;;;;;4447904;28;657440;-70
2021/04/18 04:28:07;;;;;;;34.57;15.63;;;4.20;99.90;;;;;;4419326;28;656444;-70
2021/04/18 04:30:54;;;;;;;30.80;14.97;;;4.20;99.90;;;;;;4404463;28;656758;-70
2021/04/18 04:33:41;;;;;;;34.80;17.00;;;4.20;99.90;;;;;;4439173;28;656355;-70
2021/04/18 04:36:29;;;;;;;42.25;17.25;;;4.30;99.90;;;;;;4425760;28;656507;-70
2021/04/18 04:39:16;;;;;;;29.03;14.30;;;4.40;99.90;;;;;;4439216;28;657370;-70
2021/04/18 04:42:04;;;;;;;34.87;15.77;;;4.30;99.90;;;;;;4421853;28;656915;-70
2021/04/18 04:44:52;;;;;;;34.77;15.37;;;4.40;99.90;;;;;;4445002;28;656806;-70
2021/04/18 04:47:39;;;;;;;31.90;14.27;;;4.40;99.90;;;;;;4428333;28;657465;-70
2021/04/18 04:50:27;;;;;;;29.43;13.97;;;4.40;99.90;;;;;;4437897;28;657521;-70
2021/04/18 04:53:14;;;;;;;41.97;18.77;;;4.50;99.90;;;;;;4424780;28;657849;-70
2021/04/18 04:56:02;;;;;;;48.00;21.80;;;4.50;99.90;;;;;;4443526;28;656585;-70
2021/04/18 04:58:50;;;;;;;52.77;22.87;;;4.60;99.90;;;;;;4411899;28;656719;-70
2021/04/18 05:01:39;;;;;;;51.90;24.47;;;4.60;99.90;;;;;;4434456;28;656954;-70
2021/04/18 05:04:26;;;;;;;50.03;23.93;;;4.70;99.90;;;;;;4447406;28;657318;-70
2021/04/18 05:07:13;;;;;;;69.13;27.10;;;4.70;99.90;;;;;;4424144;28;656967;-70
2021/04/18 05:10:01;;;;;;;64.90;25.50;;;4.80;99.90;;;;;;4449005;28;657078;-70
2021/04/18 05:12:48;;;;;;;51.53;20.73;;;4.80;99.90;;;;;;4422242;28;657048;-70
2021/04/18 05:15:35;;;;;;;42.23;18.17;;;4.90;99.90;;;;;;4450751;28;657503;-70
2021/04/18 05:18:23;;;;;;;45.93;20.63;;;4.90;99.90;;;;;;4414409;28;656612;-70
2021/04/18 05:21:11;;;;;;;48.20;22.07;;;4.90;99.90;;;;;;4445882;28;657279;-70
2021/04/18 05:23:59;;;;;;;57.93;24.03;;;4.90;99.90;;;;;;4417268;28;656476;-70
2021/04/18 05:26:46;;;;;;;52.17;22.47;;;4.90;99.90;;;;;;4454004;28;656158;-70
2021/04/18 05:39:35;;;;;;;47.03;20.97;;;5.10;99.90;;;;;;4382482;28;656475;-70
2021/04/18 05:42:22;;;;;;;49.90;22.83;;;5.10;99.90;;;;;;4412446;28;657467;-70
2021/04/18 05:45:10;;;;;;;44.43;19.83;;;5.10;99.90;;;;;;4390328;28;657413;-70
2021/04/18 05:47:58;;;;;;;50.60;22.97;;;5.10;99.90;;;;;;4396217;28;656938;-70
2021/04/18 05:50:45;;;;;;;47.23;20.63;;;5.20;99.90;;;;;;4403462;28;657322;-70
2021/04/18 05:53:34;;;;;;;54.53;21.63;;;5.20;99.90;;;;;;4388010;28;656535;-70
2021/04/18 05:56:21;;;;;;;46.90;20.20;;;5.30;99.90;;;;;;4411696;28;657454;-70
2021/04/18 05:59:08;;;;;;;51.53;21.47;;;5.30;99.90;;;;;;4390074;28;656696;-70
2021/04/18 06:01:56;;;;;;;57.27;24.70;;;5.30;99.90;;;;;;4403156;28;657109;-70
2021/04/18 06:04:43;;;;;;;48.80;20.90;;;5.40;99.90;;;;;;4378199;28;656185;-70
2021/04/18 06:07:30;;;;;;;48.23;20.20;;;5.40;99.90;;;;;;4397644;28;657473;-70
2021/04/18 06:10:19;;;;;;;48.47;19.50;;;5.40;99.90;;;;;;4382000;28;656542;-70
2021/04/18 06:13:06;;;;;;;45.40;21.50;;;5.40;99.90;;;;;;4407321;28;657478;-70
2021/04/18 06:15:53;;;;;;;59.97;23.57;;;5.40;99.90;;;;;;4375208;28;656781;-70
2021/04/18 06:18:41;;;;;;;46.63;18.80;;;5.50;99.90;;;;;;4403908;28;657227;-70
2021/04/18 06:21:28;;;;;;;38.53;16.80;;;5.50;99.90;;;;;;4381059;28;656420;-70
2021/04/18 06:24:16;;;;;;;36.73;15.50;;;5.60;99.90;;;;;;4394776;28;657568;-70
2021/04/18 06:27:05;;;;;;;39.27;17.67;;;5.70;99.90;;;;;;4391437;28;656637;-70
2021/04/18 06:29:52;;;;;;;52.43;19.87;;;5.70;99.90;;;;;;4414424;28;656060;-70
2021/04/18 06:32:39;;;;;;;44.10;18.30;;;5.90;99.90;;;;;;4381863;28;656972;-70
2021/04/18 06:35:26;;;;;;;43.33;18.20;;;6.00;99.90;;;;;;4407511;28;657174;-70
2021/04/18 06:38:14;;;;;;;37.77;17.63;;;6.00;99.90;;;;;;4374341;28;657044;-70
2021/04/18 06:41:02;;;;;;;36.00;15.03;;;6.10;99.90;;;;;;4401919;28;656953;-70
2021/04/18 06:43:50;;;;;;;31.80;13.70;;;6.20;99.90;;;;;;4393370;28;656363;-70
2021/04/18 06:46:38;;;;;;;30.40;14.30;;;6.10;99.90;;;;;;4377291;28;656917;-70
2021/04/18 06:49:25;;;;;;;36.23;15.80;;;6.10;99.90;;;;;;4403668;28;657657;-70
2021/04/18 06:52:13;;;;;;;32.80;14.80;;;6.20;99.90;;;;;;4382359;28;656647;-70
2021/04/18 06:55:01;;;;;;;33.87;15.10;;;6.30;99.90;;;;;;4396201;28;657742;-70
2021/04/18 06:57:48;;;;;;;29.57;12.57;;;6.30;99.90;;;;;;4386096;28;656782;-70
2021/04/18 07:00:36;;;;;;;31.20;12.93;;;6.40;99.90;;;;;;4427899;28;656767;-71
2021/04/18 07:03:24;;;;;;;31.97;14.50;;;6.40;99.90;;;;;;4420404;28;656497;-70
2021/04/18 07:07:11;;;;;;;28.23;13.47;;;6.50;99.90;;;;;;4450766;28;657222;-70
2021/04/18 07:09:59;;;;;;;28.52;13.18;;;6.70;99.90;;;;;;4397076;28;657050;-70
2021/04/18 07:12:46;;;;;;;26.40;12.43;;;6.80;99.90;;;;;;4447871;28;657854;-70
2021/04/18 07:15:39;;;;;;;29.43;12.37;;;6.90;99.90;;;;;;4422901;28;656831;-70
2021/04/18 07:18:39;;;;;;;27.40;13.00;;;7.00;99.90;;;;;;4427784;28;657346;-70
2021/04/18 07:25:00;;;;;;;41.53;16.80;;;7.00;99.90;;;;;;4420562;28;656734;-71
2021/04/18 07:27:48;;;;;;;42.47;17.90;;;6.80;99.90;;;;;;4422791;28;656550;-71
2021/04/18 07:30:47;;;;;;;35.83;15.07;;;6.90;99.90;;;;;;4435371;28;657260;-70
2021/04/18 07:33:34;;;;;;;34.47;15.00;;;7.10;99.90;;;;;;4428440;28;656393;-70
2021/04/18 07:36:22;;;;;;;34.07;15.17;;;7.10;99.90;;;;;;4443799;28;656835;-71
2021/04/18 07:39:10;;;;;;;34.53;15.80;;;7.20;99.90;;;;;;4427795;28;656607;-70
2021/04/18 07:42:00;;;;;;;37.50;15.57;;;7.20;99.90;;;;;;4428406;28;656763;-71
2021/04/18 07:44:48;;;;;;;30.33;14.50;;;7.20;99.90;;;;;;4442044;28;656761;-70
2021/04/18 07:47:39;;;;;;;30.87;13.47;;;7.20;99.90;;;;;;4445530;28;657834;-70
2021/04/18 07:50:26;;;;;;;27.30;12.20;;;7.30;99.90;;;;;;4424399;28;657079;-71
2021/04/18 07:53:16;;;;;;;29.53;12.83;;;7.20;99.90;;;;;;4429153;28;656985;-70
2021/04/18 07:56:20;;;;;;;30.30;13.70;;;7.20;99.90;;;;;;4419203;28;657084;-70
2021/04/18 07:59:07;;;;;;;31.60;15.00;;;7.10;99.90;;;;;;4416581;28;657734;-72
2021/04/18 08:01:55;;;;;;;38.90;14.37;;;7.10;99.90;;;;;;4450061;28;657266;-71
2021/04/18 08:04:44;;;;;;;36.40;15.03;;;7.10;99.90;;;;;;4437694;28;656684;-72
2021/04/18 08:07:32;;;;;;;34.57;14.63;;;7.10;99.90;;;;;;4448413;28;656047;-72
2021/04/18 08:10:23;;;;;;;30.97;14.33;;;7.30;99.90;;;;;;4421262;28;656523;-70
2021/04/18 08:13:14;;;;;;;33.10;14.38;;;7.50;99.90;;;;;;4424999;28;657224;-71
2021/04/18 08:16:03;;;;;;;38.33;16.03;;;7.80;99.90;;;;;;4423171;28;656647;-71
2021/04/18 08:18:51;;;;;;;34.73;16.20;;;8.00;99.90;;;;;;4420736;28;657167;-69
2021/04/18 08:21:40;;;;;;;37.30;16.67;;;8.10;99.90;;;;;;4418666;28;656450;-69
2021/04/18 08:24:32;;;;;;;28.87;12.63;;;8.10;99.90;;;;;;4431314;28;656673;-71
2021/04/18 08:27:19;;;;;;;24.97;10.83;;;8.20;99.90;;;;;;4419543;28;656685;-71
2021/04/18 08:30:08;;;;;;;29.80;12.23;;;8.10;99.90;;;;;;4444603;28;656023;-70
2021/04/18 08:32:55;;;;;;;30.50;12.90;;;8.10;99.90;;;;;;4427167;28;656514;-71
2021/04/18 08:35:42;;;;;;;28.03;11.97;;;8.10;99.90;;;;;;4437507;28;656646;-71
2021/04/18 08:38:31;;;;;;;28.27;12.30;;;8.10;99.90;;;;;;4450709;28;657139;-70
2021/04/18 08:41:18;;;;;;;23.33;11.43;;;8.10;99.90;;;;;;4425870;28;656360;-69
2021/04/18 08:44:14;;;;;;;30.10;12.23;;;8.20;99.90;;;;;;4444290;28;657536;-69
2021/04/18 08:47:03;;;;;;;29.33;13.07;;;8.20;99.90;;;;;;4423899;28;656828;-70
2021/04/18 08:49:51;;;;;;;29.37;12.80;;;8.20;99.90;;;;;;4419485;28;657761;-70
2021/04/18 08:52:39;;;;;;;24.83;13.10;;;8.30;99.90;;;;;;4428897;28;656767;-70
2021/04/18 08:55:28;;;;;;;29.87;13.40;;;8.50;99.90;;;;;;4445489;28;657856;-69
2021/04/18 08:58:30;;;;;;;27.13;12.70;;;8.70;99.90;;;;;;4418833;28;657557;-69
2021/04/18 09:01:18;;;;;;;29.53;14.00;;;9.00;99.90;;;;;;4408521;28;657288;-69
2021/04/18 09:04:10;;;;;;;28.10;13.40;;;9.20;99.90;;;;;;4454675;28;657413;-69
2021/04/18 09:06:58;;;;;;;28.42;13.45;;;9.50;99.90;;;;;;4429252;28;657275;-70
2021/04/18 09:09:46;;;;;;;25.77;12.80;;;9.80;99.90;;;;;;4449196;28;657299;-69
2021/04/18 09:12:35;;;;;;;23.30;11.70;;;9.60;99.90;;;;;;4422053;28;656309;-69
2021/04/18 09:15:23;;;;;;;23.00;11.23;;;9.70;99.90;;;;;;4427848;28;656874;-71
2021/04/18 09:18:10;;;;;;;24.33;11.90;;;9.80;99.90;;;;;;4443995;28;658604;-69
2021/04/18 09:21:13;;;;;;;22.90;11.60;;;9.70;99.90;;;;;;4422164;28;656714;-70
2021/04/18 09:24:01;;;;;;;26.30;12.40;;;9.70;99.90;;;;;;4421183;28;657045;-69
2021/04/18 09:26:56;;;;;;;26.17;12.23;;;9.60;99.90;;;;;;4429211;28;656971;-70
2021/04/18 09:29:47;;;;;;;30.20;14.85;;;9.30;99.90;;;;;;4398554;28;657288;-71
2021/04/18 09:32:35;;;;;;;28.33;13.37;;;9.00;99.90;;;;;;4418590;28;657855;-72
2021/04/18 09:35:25;;;;;;;24.20;12.07;;;8.80;99.90;;;;;;4431185;28;657231;-71
2021/04/18 09:38:13;;;;;;;25.17;12.87;;;8.60;99.90;;;;;;4430089;28;656516;-72
2021/04/18 09:41:01;;;;;;;28.63;13.73;;;8.60;99.90;;;;;;4442583;28;657785;-72
2021/04/18 09:43:56;;;;;;;32.20;15.17;;;8.50;99.90;;;;;;4423238;28;656441;-71
2021/04/18 09:46:45;;;;;;;31.03;14.67;;;8.60;99.90;;;;;;4425445;28;656862;-71
2021/04/18 09:49:53;;;;;;;26.93;12.03;;;8.70;99.90;;;;;;4445189;28;656176;-71
2021/04/18 09:52:41;;;;;;;35.67;17.13;;;8.60;99.90;;;;;;4425296;28;656631;-72
2021/04/18 09:55:30;;;;;;;29.37;14.50;;;8.70;99.90;;;;;;4430086;28;656349;-71
2021/04/18 09:58:26;;;;;;;30.03;14.03;;;8.80;99.90;;;;;;4431095;28;656949;-71
2021/04/18 10:01:23;;;;;;;19.07;10.20;;;8.90;99.90;;;;;;4405359;28;656809;-71
2021/04/18 10:04:23;;;;;;;17.83;9.63;;;9.30;99.90;;;;;;4421754;28;657298;-71
2021/04/18 10:07:28;;;;;;;21.87;10.77;;;9.50;99.90;;;;;;4421155;28;656250;-71
2021/04/18 10:10:30;;;;;;;19.13;9.95;;;9.80;99.90;;;;;;4426548;28;657059;-72
2021/04/18 10:13:39;;;;;;;19.60;10.20;;;10.20;99.90;;;;;;4408207;28;655301;-72
2021/04/18 10:16:27;;;;;;;16.47;8.33;;;10.30;99.90;;;;;;4422132;28;658276;-72
2021/04/18 10:19:16;;;;;;;18.27;8.93;;;10.40;99.90;;;;;;4425990;28;657753;-72
2021/04/18 10:22:08;;;;;;;16.27;9.10;;;10.70;99.90;;;;;;4423697;28;657207;-73
2021/04/18 10:24:57;;;;;;;19.13;9.57;;;11.10;99.90;;;;;;4425739;28;657530;-72
2021/04/18 10:27:44;;;;;;;16.17;9.03;;;12.10;99.90;;;;;;4430012;28;657206;-72
2021/04/18 10:30:31;;;;;;;19.87;9.87;;;12.20;99.90;;;;;;4447938;28;656799;-72
2021/04/18 10:33:19;;;;;;;22.17;10.60;;;12.20;99.90;;;;;;4426771;28;656456;-72
2021/04/18 10:36:26;;;;;;;22.27;10.63;;;12.10;99.90;;;;;;4446596;28;657995;-73
2021/04/18 10:42:46;;;;;;;18.87;10.13;;;11.80;99.90;;;;;;4420230;28;657328;-72
2021/04/18 10:45:35;;;;;;;17.83;9.40;;;12.10;99.90;;;;;;4428047;28;657695;-72
2021/04/18 10:48:24;;;;;;;18.93;9.97;;;12.40;99.90;;;;;;4429798;28;656529;-71
2021/04/18 10:51:13;;;;;;;19.30;10.90;;;12.60;99.90;;;;;;4440598;28;656573;-72
2021/04/18 10:54:01;;;;;;;20.37;9.97;;;12.80;99.90;;;;;;4418238;28;659027;-72
2021/04/18 10:56:49;;;;;;;16.97;10.33;;;13.10;99.90;;;;;;4419169;28;656567;-72
2021/04/18 10:59:39;;;;;;;19.47;10.33;;;13.20;99.90;;;;;;4443528;28;658285;-72
2021/04/18 11:02:28;;;;;;;19.07;11.13;;;13.60;99.90;;;;;;4428367;28;657400;-72
2021/04/18 11:05:16;;;;;;;20.63;10.90;;;13.70;99.90;;;;;;4423514;28;658405;-72
2021/04/18 11:08:06;;;;;;;19.40;10.33;;;13.70;99.90;;;;;;4427695;28;657137;-72
2021/04/18 11:10:53;;;;;;;17.90;10.13;;;13.70;99.90;;;;;;4422266;28;658290;-71
2021/04/18 11:13:41;;;;;;;26.03;12.43;;;13.50;99.90;;;;;;4442657;28;658505;-72
2021/04/18 11:20:01;;;;;;;28.50;13.30;;;13.30;99.90;;;;;;4381225;28;658301;-75
2021/04/18 11:22:49;;;;;;;27.67;13.30;;;13.20;99.90;;;;;;4408825;28;657674;-73
2021/04/18 11:25:36;;;;;;;24.10;11.00;;;13.00;99.90;;;;;;4429659;28;658105;-73
2021/04/18 11:28:24;;;;;;;34.10;16.43;;;12.80;99.90;;;;;;4410810;28;657865;-73
2021/04/18 11:31:11;;;;;;;24.17;11.97;;;12.70;99.90;;;;;;4428915;28;658097;-74
2021/04/18 11:33:58;;;;;;;28.30;14.07;;;12.50;99.90;;;;;;4410415;28;657725;-74
2021/04/18 11:37:29;;;;;;;20.57;10.70;;;12.30;99.90;;;;;;4428921;28;658530;-74
2021/04/18 11:40:17;;;;;;;22.07;12.43;;;12.20;99.90;;;;;;4406256;28;658394;-74
2021/04/18 11:43:05;;;;;;;35.57;14.50;;;11.90;99.90;;;;;;4405583;28;658418;-74
2021/04/18 11:45:53;;;;;;;21.35;11.43;;;11.90;99.90;;;;;;4414418;28;657773;-72
2021/04/18 11:48:41;;;;;;;24.73;12.17;;;11.60;99.90;;;;;;4443090;28;658316;-74
2021/04/18 11:51:28;;;;;;;23.10;11.80;;;11.60;99.90;;;;;;4422581;28;658014;-74
2021/04/18 11:54:16;;;;;;;26.40;13.17;;;11.50;99.90;;;;;;4451377;28;658396;-74
2021/04/18 11:57:07;;;;;;;26.20;12.90;;;11.30;99.90;;;;;;4427235;28;657752;-74
2021/04/18 11:59:54;;;;;;;28.37;14.07;;;11.10;99.90;;;;;;4416503;28;659193;-75
2021/04/18 12:02:43;;;;;;;28.83;13.90;;;11.00;99.90;;;;;;4446553;28;658553;-74
2021/04/18 12:05:37;;;;;;;33.27;16.00;;;10.90;99.90;;;;;;4424898;28;657813;-74
2021/04/18 12:08:25;;;;;;;26.77;13.80;;;10.80;99.90;;;;;;4427774;28;657708;-74
2021/04/18 12:11:15;;;;;;;27.60;14.77;;;10.60;99.90;;;;;;4440001;28;657424;-71
2021/04/18 12:14:03;;;;;;;28.27;14.20;;;10.40;99.90;;;;;;4446710;28;656617;-74
2021/04/18 12:17:08;;;;;;;34.50;15.43;;;10.30;99.90;;;;;;4423786;28;658233;-74
2021/04/18 12:20:00;;;;;;;24.23;12.77;;;10.20;99.90;;;;;;4423908;28;657742;-74
2021/04/18 12:22:48;;;;;;;27.13;12.93;;;10.10;99.90;;;;;;4396309;28;657485;-73
2021/04/18 12:25:36;;;;;;;30.07;15.37;;;10.10;99.90;;;;;;4447018;28;657801;-74
2021/04/18 12:28:24;;;;;;;25.90;13.80;;;10.20;99.90;;;;;;4425404;28;657882;-73
2021/04/18 12:31:13;;;;;;;26.90;12.97;;;10.30;99.90;;;;;;4444716;28;657672;-74
2021/04/18 12:34:00;;;;;;;24.90;12.63;;;10.40;99.90;;;;;;4420064;28;658429;-74
2021/04/18 12:36:52;;;;;;;27.27;13.17;;;10.40;99.90;;;;;;4431293;28;657868;-74
2021/04/18 12:39:40;;;;;;;28.65;12.48;;;10.40;99.90;;;;;;4432151;28;657783;-75
2021/04/18 12:42:27;;;;;;;23.13;11.43;;;10.50;99.90;;;;;;4442058;28;658189;-72
2021/04/18 12:45:15;;;;;;;21.43;11.93;;;10.60;99.90;;;;;;4449943;28;658665;-75
2021/04/18 12:48:05;;;;;;;27.50;13.13;;;10.60;99.90;;;;;;4429335;28;657460;-73
2021/04/18 12:50:53;;;;;;;24.33;12.17;;;10.70;99.90;;;;;;4438179;28;657406;-72
2021/04/18 12:53:41;;;;;;;23.50;12.33;;;10.50;99.90;;;;;;4450072;28;658735;-75
2021/04/18 12:56:30;;;;;;;27.43;13.63;;;10.40;99.90;;;;;;4431183;28;657627;-74
2021/04/18 12:59:18;;;;;;;26.23;13.77;;;10.40;99.90;;;;;;4448330;28;657706;-73
2021/04/18 13:02:05;;;;;;;26.60;13.70;;;10.20;99.90;;;;;;4454044;28;658314;-74
2021/04/18 13:04:57;;;;;;;27.97;13.43;;;10.10;99.90;;;;;;4431482;28;657848;-73
2021/04/18 13:07:46;;;;;;;32.67;15.27;;;10.00;99.90;;;;;;4421268;28;658387;-75
2021/04/18 13:10:33;;;;;;;40.00;17.00;;;9.90;99.90;;;;;;4431042;28;657848;-74
2021/04/18 13:13:21;;;;;;;43.63;17.60;;;9.80;99.90;;;;;;4454081;28;656908;-75
2021/04/18 13:16:10;;;;;;;38.90;16.60;;;9.80;99.90;;;;;;4424465;28;657121;-75
2021/04/18 13:18:58;;;;;;;35.77;15.80;;;9.70;99.90;;;;;;4441730;28;656244;-71
2021/04/18 13:21:47;;;;;;;33.17;16.00;;;9.70;99.90;;;;;;4451116;28;657177;-74
2021/04/18 13:24:35;;;;;;;31.60;15.23;;;9.60;99.90;;;;;;4422762;28;658029;-74
2021/04/18 13:27:22;;;;;;;36.97;17.27;;;9.70;99.90;;;;;;4447260;28;657089;-72
2021/04/18 13:30:11;;;;;;;37.67;17.63;;;9.70;99.90;;;;;;4442371;28;657146;-75
2021/04/18 13:32:59;;;;;;;39.50;18.17;;;9.70;99.90;;;;;;4432031;28;656866;-74
2021/04/18 13:35:46;;;;;;;40.40;19.27;;;9.70;99.90;;;;;;4454170;28;655993;-75
2021/04/18 13:38:35;;;;;;;34.00;16.92;;;9.80;99.90;;;;;;4426432;28;656628;-74
2021/04/18 13:41:23;;;;;;;43.17;20.63;;;9.70;99.90;;;;;;4431678;28;656711;-72
2021/04/18 13:44:16;;;;;;;41.57;20.67;;;9.70;99.90;;;;;;4445219;28;656986;-74
2021/04/18 13:47:03;;;;;;;50.60;23.83;;;9.80;99.90;;;;;;4422786;28;657041;-74
2021/04/18 13:49:51;;;;;;;39.27;18.60;;;9.90;99.90;;;;;;4450142;28;656798;-74
2021/04/18 13:52:39;;;;;;;54.20;23.97;;;10.00;99.90;;;;;;4430605;28;656433;-73
2021/04/18 13:55:28;;;;;;;92.87;34.27;;;10.00;99.90;;;;;;4443853;28;657587;-74
2021/04/18 13:58:15;;;;;;;56.20;22.57;;;10.10;99.90;;;;;;4425788;28;658276;-74
2021/04/18 14:01:03;;;;;;;46.63;21.10;;;10.10;99.90;;;;;;4421580;28;657692;-72
2021/04/18 14:03:52;;;;;;;38.77;18.23;;;10.20;99.90;;;;;;4453065;28;658415;-75
2021/04/18 14:06:39;;;;;;;47.53;20.27;;;10.20;99.90;;;;;;4420842;28;657949;-74
2021/04/18 14:09:26;;;;;;;39.90;18.97;;;10.40;99.90;;;;;;4447694;28;657895;-75
2021/04/18 14:12:15;;;;;;;44.45;19.95;;;10.40;99.90;;;;;;4430386;28;658039;-75
2021/04/18 14:15:03;;;;;;;33.97;15.47;;;10.40;99.90;;;;;;4433531;28;657697;-71
2021/04/18 14:17:51;;;;;;;38.07;17.13;;;10.40;99.90;;;;;;4446769;28;658809;-74
2021/04/18 14:20:38;;;;;;;66.27;26.30;;;10.30;99.90;;;;;;4429238;28;657392;-74
2021/04/18 14:23:26;;;;;;;37.87;17.17;;;10.40;99.90;;;;;;4448972;28;658009;-73
2021/04/18 14:26:14;;;;;;;48.50;22.03;;;10.30;99.90;;;;;;4424044;28;657923;-73
2021/04/18 14:29:04;;;;;;;54.30;24.17;;;10.30;99.90;;;;;;4450132;28;657622;-71
2021/04/18 14:31:52;;;;;;;52.83;22.77;;;10.30;99.90;;;;;;4411043;28;657828;-73
2021/04/18 14:34:43;;;;;;;41.63;18.27;;;10.30;99.90;;;;;;4425011;28;658943;-73